createdAt,value
2022-10-15T00:01:21.993Z,100255.88
2022-10-15T00:04:23.795Z,100252.38
2022-10-15T00:07:25.932Z,100255.97
2022-10-15T00:10:28.212Z,100258.72
2022-10-15T00:13:30.100Z,100252.56
2022-10-15T00:16:33.320Z,100252.56
2022-10-15T00:19:35.120Z,100256.16
2022-10-15T00:22:37.597Z,100251.81
2022-10-15T00:25:42.235Z,100250.22
2022-10-15T00:28:44.440Z,100259.00
2022-10-15T00:31:46.203Z,100257.41
2022-10-15T00:34:48.666Z,100262.72
2022-10-15T00:37:51.448Z,100267.06
2022-10-15T00:40:53.144Z,100259.09
2022-10-15T00:43:56.534Z,100264.31
2022-10-15T00:47:14.399Z,100268.66
2022-10-15T00:50:27.932Z,100262.50
2022-10-15T00:53:30.331Z,100266.09
2022-10-15T00:56:33.406Z,100264.41
2022-10-15T00:59:39.295Z,100259.22
2022-10-15T01:02:42.157Z,100263.75
2022-10-15T01:05:45.979Z,100255.81
2022-10-15T01:08:47.861Z,100264.69
2022-10-15T01:11:52.196Z,100259.50
2022-10-15T01:15:19.267Z,100265.75
2022-10-15T01:18:32.379Z,100258.00
2022-10-15T01:21:50.977Z,100260.19
2022-10-15T01:25:18.370Z,100263.69
2022-10-15T01:28:44.785Z,100268.22
2022-10-15T01:31:52.193Z,100264.94
2022-10-15T01:35:19.090Z,100272.13
2022-10-15T01:38:34.237Z,100271.47
2022-10-15T01:41:42.049Z,100270.72
2022-10-15T01:44:55.892Z,100275.25
2022-10-15T01:48:10.666Z,100275.44
2022-10-15T01:51:15.494Z,100280.94
2022-10-15T01:54:20.400Z,100281.88
2022-10-15T01:57:26.382Z,100282.81
2022-10-15T02:00:28.671Z,100284.72
2022-10-15T02:03:30.520Z,100283.19
2022-10-15T02:06:37.273Z,100285.84
2022-10-15T02:09:57.134Z,100285.94
2022-10-15T02:13:09.839Z,100289.63
2022-10-15T02:16:22.135Z,100289.91
2022-10-15T02:19:39.654Z,100289.91
2022-10-15T02:22:54.226Z,100291.72
2022-10-15T02:25:57.473Z,100286.41
2022-10-15T02:29:02.245Z,100292.66
2022-10-15T02:32:07.538Z,100291.81
2022-10-15T02:35:11.910Z,100292.66
2022-10-15T02:38:20.784Z,100296.44
2022-10-15T02:41:23.067Z,100300.88
2022-10-15T02:44:24.814Z,100296.63
2022-10-15T02:47:26.756Z,100303.72
2022-10-15T02:50:28.596Z,100298.53
2022-10-15T02:53:30.489Z,100299.75
2022-10-15T02:56:32.537Z,100307.78
2022-10-15T02:59:34.822Z,100308.72
2022-10-15T03:02:37.483Z,100311.38
2022-10-15T03:05:39.700Z,100315.91
2022-10-15T03:08:44.742Z,100316.84
2022-10-15T03:11:46.646Z,100312.69
2022-10-15T03:14:48.536Z,100314.56
2022-10-15T03:17:50.428Z,100312.88
2022-10-15T03:20:57.308Z,100322.69
2022-10-15T03:23:59.639Z,100320.13
2022-10-15T03:27:02.407Z,100323.72
2022-10-15T03:30:05.788Z,100320.41
2022-10-15T03:33:09.123Z,100325.78
2022-10-15T03:36:11.156Z,100323.06
2022-10-15T03:39:13.592Z,100324.09
2022-10-15T03:42:16.008Z,100330.41
2022-10-15T03:45:20.746Z,100327.00
2022-10-15T03:48:30.646Z,100323.50
2022-10-15T03:51:32.865Z,100324.72
2022-10-15T03:54:42.194Z,100325.75
2022-10-15T03:57:45.459Z,100323.97
2022-10-15T04:00:47.745Z,100325.66
2022-10-15T04:03:53.339Z,100326.53
2022-10-15T04:06:59.267Z,100328.50
2022-10-15T04:10:02.308Z,100325.94
2022-10-15T04:13:10.939Z,100337.38
2022-10-15T04:16:13.165Z,100332.84
2022-10-15T04:19:16.059Z,100340.88
2022-10-15T04:22:21.708Z,100335.56
2022-10-15T04:25:27.899Z,100336.34
2022-10-15T04:28:29.896Z,100336.34
2022-10-15T04:31:31.879Z,100334.38
2022-10-15T04:34:34.907Z,100339.47
2022-10-15T04:37:37.610Z,100335.72
2022-10-15T04:40:41.191Z,100344.81
2022-10-15T04:43:43.103Z,100347.84
2022-10-15T04:46:46.498Z,100354.19
2022-10-15T04:50:20.505Z,100350.63
2022-10-15T04:53:40.921Z,100348.06
2022-10-15T04:56:43.793Z,100351.59
2022-10-15T04:59:45.640Z,100349.78
2022-10-15T05:03:19.612Z,100350.53
2022-10-15T05:06:41.687Z,100354.75
2022-10-15T05:09:52.494Z,100357.47
2022-10-15T05:12:56.783Z,100357.22
2022-10-15T05:16:17.093Z,100358.78
2022-10-15T05:19:19.172Z,100363.19
2022-10-15T05:22:24.426Z,100369.16
2022-10-15T05:25:30.163Z,100367.94
2022-10-15T05:28:32.469Z,100374.66
2022-10-15T05:31:34.779Z,100390.28
2022-10-15T05:34:47.692Z,100382.75
2022-10-15T05:37:51.613Z,100380.38
2022-10-15T05:40:53.446Z,100387.91
2022-10-15T05:43:59.440Z,100396.38
2022-10-15T05:47:04.480Z,100392.41
2022-10-15T05:50:09.557Z,100397.03
2022-10-15T05:53:17.964Z,100394.09
2022-10-15T05:56:22.073Z,100396.97
2022-10-15T05:59:23.794Z,100405.63
2022-10-15T06:02:25.708Z,100406.78
2022-10-15T06:05:28.003Z,100407.31
2022-10-15T06:08:31.017Z,100409.31
2022-10-15T06:11:32.660Z,100409.09
2022-10-15T06:14:34.417Z,100398.53
2022-10-15T06:17:36.426Z,100402.53
2022-10-15T06:20:38.494Z,100409.78
2022-10-15T06:23:40.367Z,100401.72
2022-10-15T06:26:42.083Z,100406.19
2022-10-15T06:29:43.865Z,100412.19
2022-10-15T06:32:50.328Z,100411.44
2022-10-15T06:35:52.145Z,100413.34
2022-10-15T06:38:54.132Z,100414.44
2022-10-15T06:41:55.871Z,100407.00
2022-10-15T06:44:58.132Z,100402.97
2022-10-15T06:47:59.944Z,100416.44
2022-10-15T06:51:02.565Z,100408.88
2022-10-15T06:54:04.449Z,100413.28
2022-10-15T06:57:06.188Z,100411.50
2022-10-15T07:00:08.408Z,100408.19
2022-10-15T07:03:10.155Z,100414.94
2022-10-15T07:06:11.932Z,100412.25
2022-10-15T07:09:14.349Z,100413.66
2022-10-15T07:12:16.471Z,100421.13
2022-10-15T07:15:19.233Z,100421.09
2022-10-15T07:18:21.022Z,100417.22
2022-10-15T07:21:22.895Z,100425.38
2022-10-15T07:24:24.609Z,100419.84
2022-10-15T07:27:26.364Z,100423.72
2022-10-15T07:30:28.943Z,100422.38
2022-10-15T07:33:31.452Z,100419.56
2022-10-15T07:36:35.911Z,100415.22
2022-10-15T07:39:40.750Z,100419.16
2022-10-15T07:42:43.504Z,100417.84
2022-10-15T07:45:49.335Z,100416.19
2022-10-15T07:48:51.159Z,100421.56
2022-10-15T07:51:52.881Z,100418.28
2022-10-15T07:54:54.659Z,100417.00
2022-10-15T07:57:58.439Z,100415.84
2022-10-15T08:01:06.747Z,100410.03
2022-10-15T08:04:09.141Z,100411.28
2022-10-15T08:07:12.840Z,100412.31
2022-10-15T08:10:14.723Z,100403.75
2022-10-15T08:13:16.511Z,100406.50
2022-10-15T08:16:20.299Z,100406.16
2022-10-15T08:19:32.879Z,100407.88
2022-10-15T08:22:35.171Z,100399.47
2022-10-15T08:25:36.941Z,100409.28
2022-10-15T08:28:38.856Z,100405.88
2022-10-15T08:31:40.721Z,100402.75
2022-10-15T08:34:42.458Z,100410.53
2022-10-15T08:37:44.206Z,100405.63
2022-10-15T08:40:59.785Z,100403.78
2022-10-15T08:44:02.373Z,100397.03
2022-10-15T08:47:12.908Z,100398.56
2022-10-15T08:50:26.607Z,100394.34
2022-10-15T08:53:30.055Z,100387.75
2022-10-15T08:56:36.954Z,100388.44
2022-10-15T09:00:13.212Z,100384.03
2022-10-15T09:03:30.833Z,100386.91
2022-10-15T09:06:38.587Z,100387.94
2022-10-15T09:09:43.076Z,100386.91
2022-10-15T09:13:07.457Z,100392.31
2022-10-15T09:16:36.209Z,100394.34
2022-10-15T09:19:38.190Z,100390.47
2022-10-15T09:22:42.603Z,100393.50
2022-10-15T09:25:47.927Z,100385.06
2022-10-15T09:29:01.894Z,100382.34
2022-10-15T09:32:31.496Z,100379.31
2022-10-15T09:35:45.503Z,100378.81
2022-10-15T09:39:13.583Z,100384.72
2022-10-15T09:42:36.269Z,100376.28
2022-10-15T09:45:38.077Z,100374.75
2022-10-15T09:49:21.501Z,100369.28
2022-10-15T09:53:06.033Z,100370.81
2022-10-15T09:56:15.968Z,100361.69
2022-10-15T09:59:19.881Z,100364.72
2022-10-15T10:02:25.279Z,100366.38
2022-10-15T10:05:30.652Z,100363.28
2022-10-15T10:08:37.566Z,100356.84
2022-10-15T10:11:58.058Z,100359.16
2022-10-15T10:15:26.721Z,100353.09
2022-10-15T10:18:28.499Z,100359.13
2022-10-15T10:21:37.249Z,100363.41
2022-10-15T10:24:39.087Z,100353.00
2022-10-15T10:27:45.951Z,100361.09
2022-10-15T10:31:00.422Z,100351.28
2022-10-15T10:34:03.253Z,100350.47
2022-10-15T10:37:06.662Z,100354.97
2022-10-15T10:40:22.158Z,100352.91
2022-10-15T10:43:29.486Z,100350.72
2022-10-15T10:46:31.229Z,100345.81
2022-10-15T10:49:42.667Z,100337.06
2022-10-15T10:52:45.572Z,100334.69
2022-10-15T10:55:48.801Z,100335.00
2022-10-15T10:59:29.919Z,100335.00
2022-10-15T11:02:34.113Z,100338.91
2022-10-15T11:05:40.408Z,100340.22
2022-10-15T11:08:42.113Z,100336.84
2022-10-15T11:11:50.352Z,100337.78
2022-10-15T11:15:10.470Z,100339.16
2022-10-15T11:18:49.586Z,100342.44
2022-10-15T11:22:02.168Z,100341.28
2022-10-15T11:25:33.139Z,100333.34
2022-10-15T11:28:56.162Z,100333.88
2022-10-15T11:32:42.084Z,100335.88
2022-10-15T11:36:16.261Z,100330.66
2022-10-15T11:39:45.559Z,100326.81
2022-10-15T11:42:56.769Z,100332.72
2022-10-15T11:46:07.955Z,100328.44
2022-10-15T11:49:29.547Z,100329.97
2022-10-15T11:53:03.232Z,100329.81
2022-10-15T11:56:14.914Z,100328.59
2022-10-15T11:59:48.738Z,100324.38
2022-10-15T12:02:52.269Z,100329.91
2022-10-15T12:06:00.752Z,100322.53
2022-10-15T12:09:09.753Z,100323.94
2022-10-15T12:12:26.816Z,100326.09
2022-10-15T12:15:56.979Z,100324.56
2022-10-15T12:19:50.540Z,100326.66
2022-10-15T12:22:52.292Z,100319.25
2022-10-15T12:25:54.611Z,100315.66
2022-10-15T12:29:00.935Z,100321.66
2022-10-15T12:32:05.078Z,100322.97
2022-10-15T12:35:35.175Z,100323.34
2022-10-15T12:38:40.131Z,100317.97
2022-10-15T12:41:45.264Z,100323.94
2022-10-15T12:44:49.826Z,100326.94
2022-10-15T12:47:56.115Z,100319.34
2022-10-15T12:51:16.497Z,100324.75
2022-10-15T12:54:37.763Z,100321.94
2022-10-15T12:57:39.458Z,100325.63
2022-10-15T13:00:42.621Z,100323.34
2022-10-15T13:03:53.229Z,100323.66
2022-10-15T13:07:03.793Z,100329.63
2022-10-15T13:10:16.230Z,100321.31
2022-10-15T13:13:31.137Z,100329.66
2022-10-15T13:16:33.027Z,100317.69
2022-10-15T13:19:39.465Z,100331.13
2022-10-15T13:22:41.205Z,100323.06
2022-10-15T13:25:43.200Z,100324.34
2022-10-15T13:28:47.046Z,100328.91
2022-10-15T13:31:50.467Z,100323.00
2022-10-15T13:34:52.363Z,100323.75
2022-10-15T13:37:54.146Z,100328.41
2022-10-15T13:40:56.746Z,100319.81
2022-10-15T13:44:02.578Z,100333.81
2022-10-15T13:47:39.579Z,100331.28
2022-10-15T13:50:41.321Z,100328.03
2022-10-15T13:53:43.153Z,100334.53
2022-10-15T13:56:53.065Z,100331.44
2022-10-15T13:59:54.835Z,100335.00
2022-10-15T14:03:13.407Z,100332.63
2022-10-15T14:06:20.862Z,100339.97
2022-10-15T14:09:33.261Z,100341.53
2022-10-15T14:12:35.144Z,100336.75
2022-10-15T14:15:49.473Z,100338.44
2022-10-15T14:19:08.851Z,100341.00
2022-10-15T14:22:18.341Z,100333.97
2022-10-15T14:25:25.290Z,100337.66
2022-10-15T14:28:29.572Z,100341.75
2022-10-15T14:31:40.374Z,100343.31
2022-10-15T14:34:42.390Z,100341.56
2022-10-15T14:37:44.129Z,100349.16
2022-10-15T14:41:20.961Z,100344.50
2022-10-15T14:44:22.878Z,100354.16
2022-10-15T14:47:27.670Z,100344.09
2022-10-15T14:50:35.609Z,100343.03
2022-10-15T14:53:43.607Z,100354.09
2022-10-15T14:56:46.058Z,100359.22
2022-10-15T14:59:48.035Z,100359.69
2022-10-15T15:02:50.430Z,100361.13
2022-10-15T15:05:55.133Z,100363.00
2022-10-15T15:08:56.967Z,100362.06
2022-10-15T15:11:58.914Z,100361.63
2022-10-15T15:15:00.781Z,100364.84
2022-10-15T15:18:02.573Z,100365.84
2022-10-15T15:21:07.835Z,100373.16
2022-10-15T15:24:09.822Z,100369.78
2022-10-15T15:27:23.155Z,100376.81
2022-10-15T15:30:28.137Z,100377.56
2022-10-15T15:33:29.971Z,100373.69
2022-10-15T15:36:31.763Z,100381.44
2022-10-15T15:39:33.475Z,100381.44
2022-10-15T15:42:35.258Z,100393.06
2022-10-15T15:45:37.637Z,100391.22
2022-10-15T15:48:39.463Z,100400.66
2022-10-15T15:51:41.292Z,100393.25
2022-10-15T15:54:45.127Z,100402.94
2022-10-15T15:57:47.002Z,100406.28
2022-10-15T16:00:48.717Z,100408.56
2022-10-15T16:03:50.461Z,100400.44
2022-10-15T16:06:52.245Z,100396.53
2022-10-15T16:09:54.028Z,100393.59
2022-10-15T16:12:56.748Z,100396.09
2022-10-15T16:15:58.750Z,100400.91
2022-10-15T16:19:00.551Z,100396.88
2022-10-15T16:22:02.291Z,100400.09
2022-10-15T16:25:04.624Z,100399.69
2022-10-15T16:28:06.752Z,100402.81
2022-10-15T16:31:18.855Z,100402.28
2022-10-15T16:34:20.628Z,100395.69
2022-10-15T16:37:22.685Z,100397.81
2022-10-15T16:40:24.642Z,100404.44
2022-10-15T16:43:26.740Z,100401.03
2022-10-15T16:46:28.732Z,100403.19
2022-10-15T16:49:30.576Z,100405.31
2022-10-15T16:52:34.027Z,100404.06
2022-10-15T16:55:35.919Z,100406.09
2022-10-15T16:58:38.170Z,100408.09
2022-10-15T17:01:39.988Z,100404.94
2022-10-15T17:04:41.827Z,100410.47
2022-10-15T17:07:43.582Z,100412.25
2022-10-15T17:10:45.432Z,100407.91
2022-10-15T17:13:49.037Z,100406.22
2022-10-15T17:16:52.661Z,100412.59
2022-10-15T17:19:54.710Z,100404.94
2022-10-15T17:22:57.837Z,100408.03
2022-10-15T17:26:14.594Z,100410.94
2022-10-15T17:29:20.954Z,100407.53
2022-10-15T17:32:23.075Z,100412.94
2022-10-15T17:35:25.172Z,100414.00
2022-10-15T17:38:26.902Z,100411.66
2022-10-15T17:41:30.825Z,100415.06
2022-10-15T17:44:34.219Z,100420.50
2022-10-15T17:47:37.774Z,100420.72
2022-10-15T17:50:44.590Z,100417.50
2022-10-15T17:53:50.797Z,100413.47
2022-10-15T17:56:52.536Z,100429.72
2022-10-15T17:59:58.011Z,100429.94
2022-10-15T18:03:00.248Z,100438.13
2022-10-15T18:06:10.913Z,100437.47
2022-10-15T18:09:13.786Z,100439.59
2022-10-15T18:12:15.732Z,100436.38
2022-10-15T18:15:17.460Z,100437.44
2022-10-15T18:18:19.396Z,100442.09
2022-10-15T18:21:23.777Z,100438.81
2022-10-15T18:24:25.560Z,100450.59
2022-10-15T18:27:27.879Z,100447.38
2022-10-15T18:30:30.176Z,100451.09
2022-10-15T18:33:32.421Z,100451.41
2022-10-15T18:36:34.209Z,100453.50
2022-10-15T18:39:36.374Z,100452.75
2022-10-15T18:42:38.240Z,100462.06
2022-10-15T18:45:40.474Z,100459.72
2022-10-15T18:48:42.321Z,100475.84
2022-10-15T18:51:46.176Z,100472.44
2022-10-15T18:54:48.078Z,100471.78
2022-10-15T18:57:49.790Z,100471.97
2022-10-15T19:00:51.496Z,100473.13
2022-10-15T19:03:55.130Z,100475.97
2022-10-15T19:07:02.218Z,100478.91
2022-10-15T19:10:04.385Z,100484.41
2022-10-15T19:13:06.089Z,100479.41
2022-10-15T19:16:08.247Z,100480.44
2022-10-15T19:19:12.649Z,100486.81
2022-10-15T19:22:14.771Z,100481.59
2022-10-15T19:25:16.660Z,100488.03
2022-10-15T19:28:19.599Z,100495.25
2022-10-15T19:31:32.229Z,100500.75
2022-10-15T19:34:35.414Z,100496.56
2022-10-15T19:37:37.648Z,100510.03
2022-10-15T19:40:44.710Z,100509.25
2022-10-15T19:43:49.089Z,100508.69
2022-10-15T19:46:51.730Z,100518.53
2022-10-15T19:49:55.601Z,100518.72
2022-10-15T19:52:57.383Z,100520.63
2022-10-15T19:56:08.302Z,100521.66
2022-10-15T19:59:11.376Z,100528.19
2022-10-15T20:02:14.515Z,100520.63
2022-10-15T20:05:16.505Z,100522.50
2022-10-15T20:08:18.829Z,100518.34
2022-10-15T20:11:21.278Z,100522.88
2022-10-15T20:14:23.016Z,100517.75
2022-10-15T20:17:24.973Z,100516.16
2022-10-15T20:20:27.808Z,100520.69
2022-10-15T20:23:29.579Z,100516.44
2022-10-15T20:26:31.397Z,100515.75
2022-10-15T20:29:33.174Z,100520.19
2022-10-15T20:32:38.733Z,100522.94
2022-10-15T20:35:41.345Z,100516.88
2022-10-15T20:38:43.646Z,100521.41
2022-10-15T20:41:45.547Z,100525.09
2022-10-15T20:44:47.318Z,100519.91
2022-10-15T20:47:52.520Z,100524.44
2022-10-15T20:50:55.697Z,100526.41
2022-10-15T20:53:59.331Z,100531.03
2022-10-15T20:57:01.509Z,100530.19
2022-10-15T21:00:05.742Z,100532.91
2022-10-15T21:03:07.575Z,100527.72
2022-10-15T21:06:09.305Z,100529.41
2022-10-15T21:09:11.768Z,100534.81
2022-10-15T21:12:13.535Z,100541.03
2022-10-15T21:15:15.264Z,100532.44
2022-10-15T21:18:17.077Z,100535.16
2022-10-15T21:21:18.851Z,100539.69
2022-10-15T21:24:20.785Z,100537.13
2022-10-15T21:27:22.792Z,100539.88
2022-10-15T21:30:24.719Z,100542.69
2022-10-15T21:33:26.567Z,100546.28
2022-10-15T21:36:28.534Z,100542.97
2022-10-15T21:39:30.319Z,100550.91
2022-10-15T21:42:32.075Z,100550.06
2022-10-15T21:45:33.936Z,100546.66
2022-10-15T21:48:39.118Z,100541.34
2022-10-15T21:51:40.959Z,100536.06
2022-10-15T21:54:42.744Z,100544.09
2022-10-15T21:57:44.518Z,100547.75
2022-10-15T22:00:46.388Z,100551.44
2022-10-15T22:03:50.257Z,100558.53
2022-10-15T22:06:52.029Z,100566.63
2022-10-15T22:09:53.842Z,100570.41
2022-10-15T22:12:55.623Z,100565.97
2022-10-15T22:16:00.111Z,100571.50
2022-10-15T22:19:02.145Z,100564.50
2022-10-15T22:22:03.895Z,100582.28
2022-10-15T22:25:06.086Z,100574.41
2022-10-15T22:28:07.810Z,100577.31
2022-10-15T22:31:11.690Z,100571.25
2022-10-15T22:34:14.289Z,100571.34
2022-10-15T22:37:16.039Z,100575.03
2022-10-15T22:40:17.791Z,100579.47
2022-10-15T22:43:19.509Z,100588.41
2022-10-15T22:46:21.416Z,100582.38
2022-10-15T22:49:23.384Z,100580.75
2022-10-15T22:52:25.443Z,100583.47
2022-10-15T22:55:27.540Z,100584.41
2022-10-15T22:58:31.017Z,100590.81
2022-10-15T23:01:34.889Z,100590.97
2022-10-15T23:04:36.811Z,100595.50
2022-10-15T23:07:39.740Z,100589.44
2022-10-15T23:10:41.534Z,100598.41
2022-10-15T23:13:44.948Z,100602.91
2022-10-15T23:16:47.854Z,100596.78
2022-10-15T23:19:49.551Z,100605.63
2022-10-15T23:22:51.379Z,100607.59
2022-10-15T23:25:53.080Z,100610.16
2022-10-15T23:28:57.639Z,100608.63
2022-10-15T23:31:59.484Z,100607.00
2022-10-15T23:35:01.258Z,100606.13
2022-10-15T23:38:03.097Z,100606.22
2022-10-15T23:41:07.698Z,100602.72
2022-10-15T23:44:09.737Z,100604.50
2022-10-15T23:47:11.600Z,100601.00
2022-10-15T23:50:13.409Z,100600.25
2022-10-15T23:53:15.146Z,100600.31
2022-10-15T23:56:17.755Z,100602.97
2022-10-15T23:59:21.283Z,100605.53
